Monday, November 20, 2017, 2:09 PM EST
Back to Local

KIPT, Williamsport-lycoming County

Location: Montoursville, PA, United States Lat: 41.25
Local Time: 2:09 PM EST (19:09 GMT) Lon: -76.917
Time Zone: US/Eastern Elev: 528 ft

Show me the last for .
Show Decoded

2017-11-20 13:54 METAR KIPT 201854Z 23008KT 10SM FEW042 08/M03 A3004 RMK AO2 SLP175 T00781033 =
2017-11-20 12:54 METAR KIPT 201754Z 24012KT 10SM SCT042 07/M03 A3004 RMK AO2 SLP175 T00671033
                 10072 20022 58011 =
2017-11-20 11:54 METAR KIPT 201654Z 26014G22KT 10SM SCT041 06/M04 A3005 RMK AO2 SLP178 T00561039
                 =
2017-11-20 10:54 METAR KIPT 201554Z 26014G21KT 10SM SCT038 BKN041 06/M03 A3007 RMK AO2 PK WND
                 25028/1502 SLP185 T00561033 =
2017-11-20 09:54 METAR KIPT 201454Z 25013KT 10SM SCT038 BKN050 04/M04 A3007 RMK AO2 SLP186
                 T00441039 51017 =
2017-11-20 08:54 METAR KIPT 201354Z 27011KT 10SM BKN044 04/M04 A3006 RMK AO2 SLP184 T00391044 =
2017-11-20 07:54 METAR KIPT 201254Z 27010KT 10SM OVC042 03/M04 A3005 RMK AO2 SLP179 T00281044 =
2017-11-20 06:54 METAR KIPT 201154Z 28011G18KT 10SM BKN044 OVC055 02/M04 A3002 RMK AO2 SLP169
                 60000 T00221039 10022 20011 51025 =
2017-11-20 05:54 METAR KIPT 201054Z AUTO 26009KT 10SM OVC047 02/M03 A2999 RMK AO2 SLP160
                 T00221033 =
2017-11-20 04:54 METAR KIPT 200954Z AUTO 27010KT 10SM FEW046 OVC070 02/M04 A2997 RMK AO2 SLP153
                 T00221039 =
2017-11-20 03:54 METAR KIPT 200854Z AUTO 27008KT 10SM OVC039 02/M03 A2994 RMK AO2 SNB17E39 SLP143
                 P0000 60000 T00221028 51018 =
2017-11-20 02:54 METAR KIPT 200754Z AUTO 26007KT 10SM BKN047 OVC055 02/M04 A2993 RMK AO2 SLP139
                 T00221044 =
2017-11-20 01:54 METAR KIPT 200654Z AUTO 31006KT 10SM OVC075 02/M05 A2991 RMK AO2 SLP132
                 T00171050 =
2017-11-20 00:54 METAR KIPT 200554Z AUTO 30006KT 10SM BKN050 01/M05 A2989 RMK AO2 SLP125 60000
                 T00111050 10050 20011 53020 =
2017-11-19 23:54 METAR KIPT 200454Z AUTO 27004KT 10SM SCT060 BKN075 02/M02 A2987 RMK AO2 SLP118
                 T00171022 401170011 =
2017-11-19 22:54 METAR KIPT 200354Z AUTO 27005KT 10SM SCT045 01/M01 A2985 RMK AO2 SNB0257E32
                 SLP111 P0000 T00111006 =
2017-11-19 22:25 METAR KIPT 200325Z 25009KT 7SM -SN SCT014 BKN044 OVC090 02/M01 A2984 RMK AO2
                 SNB0257 P0000 T00171006 =
2017-11-19 22:05 METAR KIPT 200305Z 27007KT 2 1/2SM -SN FEW013 BKN018 OVC036 02/M01 A2983 RMK AO2
                 SNB0257 P0000 T00221011 =
2017-11-19 21:54 METAR KIPT 200254Z 33011KT 10SM FEW024 BKN033 OVC042 04/M01 A2983 RMK AO2 SLP103
                 60000 T00391011 53022 =
2017-11-19 20:54 METAR KIPT 200154Z 27010KT 10SM SCT048 OVC100 04/M01 A2980 RMK AO2 SLP095
                 T00391011 =
2017-11-19 19:54 METAR KIPT 200054Z 30010KT 10SM BKN046 BKN055 OVC090 03/M01 A2978 RMK AO2
                 RAB34E54 SLP087 P0000 T00331011 =
2017-11-19 18:54 METAR KIPT 192354Z 30007KT 10SM BKN043 OVC090 04/M01 A2976 RMK AO2 PK WND
                 26030/2302 RAB03E13 SLP081 P0000 60000 T00441011 10089 20044 53027 =
2017-11-19 17:54 METAR KIPT 192254Z 26013KT 10SM FEW060 BKN085 05/M01 A2973 RMK AO2 RAB17E27
                 SLP069 P0000 T00501011 =
2017-11-19 16:54 METAR KIPT 192154Z 27011G19KT 10SM BKN055 BKN070 OVC080 07/M03 A2969 RMK AO2
                 SLP057 T00671033 =
2017-11-19 15:54 METAR KIPT 192054Z 29010KT 10SM BKN043 OVC055 07/M01 A2968 RMK AO2 SLP052 60000
                 T00671011 53022 =
2017-11-19 14:54 METAR KIPT 191954Z 26016G22KT 10SM FEW035 BKN055 OVC065 07/01 A2966 RMK AO2 PK
                 WND 27027/1915 WSHFT 1842 RAB25E43 SLP044 P0000 T00670006 =

Support USWX by starting your Amazon purchase here.